Time;durP1;ratioP1;P1;durP2;ratioP2;P2;SDS_P1;SDS_P2;PMS_P1;PMS_P2;Temp;Humidity;BMP_temperature;BMP_pressure;BME280_temperature;BME280_humidity;BME280_pressure;Samples;Min_cycle;Max_cycle;Signal;HPM_P1;HPM_P2
2022/05/15 00:01:08;;;;;;;13.32;6.25;;;14.70;94.50;;;;;;2084199;28;20033;-69
2022/05/15 00:02:09;;;;;;;11.32;5.82;;;14.70;94.20;;;;;;2082720;28;20025;-69
2022/05/15 00:03:14;;;;;;;12.85;5.70;;;14.70;95.20;;;;;;2082184;28;20030;-69
2022/05/15 00:04:15;;;;;;;15.30;6.20;;;14.70;95.90;;;;;;2080760;28;20185;-69
2022/05/15 00:05:15;;;;;;;14.68;5.65;;;14.70;95.90;;;;;;2081094;28;20048;-69
2022/05/15 00:06:16;;;;;;;14.15;5.18;;;14.60;95.10;;;;;;2079572;28;20032;-69
2022/05/15 00:07:16;;;;;;;17.33;6.40;;;14.60;94.50;;;;;;2083074;28;20088;-69
2022/05/15 00:08:17;;;;;;;14.73;5.90;;;14.60;95.70;;;;;;2079531;28;20054;-69
2022/05/15 00:09:17;;;;;;;11.00;5.00;;;14.60;96.50;;;;;;2082649;28;20060;-69
2022/05/15 00:10:18;;;;;;;16.55;6.82;;;14.60;95.40;;;;;;2082374;28;20171;-69
2022/05/15 00:11:18;;;;;;;12.75;5.93;;;14.60;96.70;;;;;;2081127;28;20037;-69
2022/05/15 00:12:20;;;;;;;12.35;5.38;;;14.60;96.10;;;;;;2085388;28;20013;-69
2022/05/15 00:13:22;;;;;;;15.75;5.93;;;14.60;95.50;;;;;;2082643;28;20075;-69
2022/05/15 00:14:22;;;;;;;16.05;6.78;;;14.50;96.10;;;;;;2084670;28;20096;-69
2022/05/15 00:15:23;;;;;;;12.15;5.80;;;14.50;96.80;;;;;;2081101;28;20057;-69
2022/05/15 00:16:24;;;;;;;14.20;5.95;;;14.60;96.10;;;;;;2087459;28;20025;-69
2022/05/15 00:17:25;;;;;;;14.57;5.88;;;14.50;96.20;;;;;;2080887;28;20508;-69
2022/05/15 00:18:26;;;;;;;11.43;6.18;;;14.50;97.50;;;;;;2082033;28;20461;-69
2022/05/15 00:19:27;;;;;;;17.98;6.43;;;14.50;97.30;;;;;;2083234;28;20021;-69
2022/05/15 00:20:28;;;;;;;14.68;6.68;;;14.50;97.80;;;;;;2084124;28;20026;-69
2022/05/15 00:21:28;;;;;;;12.98;5.43;;;14.50;96.90;;;;;;2080481;28;20025;-69
2022/05/15 00:22:35;;;;;;;14.68;6.07;;;14.50;96.50;;;;;;2081074;28;20100;-69
2022/05/15 00:23:36;;;;;;;13.63;5.68;;;14.40;97.20;;;;;;2082122;28;20552;-69
2022/05/15 00:24:37;;;;;;;12.45;5.65;;;14.40;97.10;;;;;;2084998;28;20040;-69
2022/05/15 00:25:38;;;;;;;16.17;6.40;;;14.40;98.00;;;;;;2081813;28;20389;-69
2022/05/15 00:26:39;;;;;;;15.65;6.22;;;14.40;97.70;;;;;;2081818;28;20028;-69
2022/05/15 00:27:39;;;;;;;14.98;6.45;;;14.40;97.60;;;;;;2079637;28;20071;-69
2022/05/15 00:28:40;;;;;;;13.90;5.63;;;14.40;97.60;;;;;;2082046;28;20040;-69
2022/05/15 00:29:43;;;;;;;11.50;5.43;;;14.40;97.70;;;;;;2081290;28;20667;-69
2022/05/15 00:30:44;;;;;;;17.08;7.03;;;14.40;97.50;;;;;;2081774;28;20063;-69
2022/05/15 00:31:44;;;;;;;18.23;6.38;;;14.40;98.10;;;;;;2081961;28;20152;-69
2022/05/15 00:32:45;;;;;;;14.55;6.70;;;14.30;98.10;;;;;;2082353;28;20044;-69
2022/05/15 00:33:46;;;;;;;15.93;6.35;;;14.40;98.90;;;;;;2082671;28;20030;-69
2022/05/15 00:34:46;;;;;;;10.52;5.53;;;14.40;97.90;;;;;;2084254;28;20029;-69
2022/05/15 00:35:47;;;;;;;18.30;6.03;;;14.30;98.30;;;;;;2080894;28;20027;-69
2022/05/15 00:36:47;;;;;;;14.65;6.30;;;14.30;98.50;;;;;;2084970;28;20016;-69
2022/05/15 00:37:48;;;;;;;14.20;6.07;;;14.30;98.60;;;;;;2080826;28;20025;-69
2022/05/15 00:38:49;;;;;;;13.27;6.38;;;14.30;99.00;;;;;;2081798;28;20182;-69
2022/05/15 00:39:49;;;;;;;13.70;5.88;;;14.30;99.80;;;;;;2081366;28;20436;-69
2022/05/15 00:40:51;;;;;;;10.75;5.75;;;14.30;98.80;;;;;;2079964;28;20026;-69
2022/05/15 00:41:51;;;;;;;12.20;5.20;;;14.30;97.90;;;;;;2081592;28;20036;-69
2022/05/15 00:42:52;;;;;;;11.23;5.60;;;14.30;98.90;;;;;;2082868;28;20029;-69
2022/05/15 00:43:55;;;;;;;14.63;5.05;;;14.20;99.30;;;;;;2083560;28;20040;-69
2022/05/15 00:44:55;;;;;;;13.57;5.47;;;14.30;98.90;;;;;;2081461;28;20060;-69
2022/05/15 00:45:56;;;;;;;19.05;6.93;;;14.30;99.60;;;;;;2083043;28;20033;-69
2022/05/15 00:46:56;;;;;;;15.93;6.30;;;14.30;99.90;;;;;;2084067;28;20028;-69
2022/05/15 00:47:57;;;;;;;14.10;5.90;;;14.30;99.90;;;;;;2080563;28;20064;-69
2022/05/15 00:49:00;;;;;;;14.93;6.18;;;14.20;99.90;;;;;;2082630;28;20021;-69
2022/05/15 00:50:05;;;;;;;16.73;6.63;;;14.20;99.90;;;;;;2083071;28;20029;-69
2022/05/15 00:51:14;;;;;;;18.13;6.55;;;14.20;99.90;;;;;;2082360;28;20531;-69
2022/05/15 00:52:19;;;;;;;24.13;6.47;;;14.20;99.90;;;;;;2080701;28;20060;-69
2022/05/15 00:53:20;;;;;;;24.02;6.53;;;14.20;99.90;;;;;;2084880;28;20017;-69
2022/05/15 00:54:25;;;;;;;19.83;6.65;;;14.20;99.90;;;;;;2082453;28;20063;-69
2022/05/15 00:55:33;;;;;;;14.60;6.07;;;14.20;99.90;;;;;;2079319;28;20555;-69
2022/05/15 00:56:37;;;;;;;16.05;6.28;;;14.20;99.90;;;;;;2083774;28;20025;-69
2022/05/15 00:57:47;;;;;;;20.52;7.60;;;14.20;99.90;;;;;;2084071;28;20017;-69
2022/05/15 00:58:56;;;;;;;14.00;5.35;;;14.20;99.90;;;;;;2081219;28;20028;-69
2022/05/15 01:00:04;;;;;;;17.13;6.03;;;14.20;99.90;;;;;;2081604;28;20033;-69
2022/05/15 01:01:05;;;;;;;18.85;6.70;;;14.20;99.90;;;;;;2083053;28;20072;-69
2022/05/15 01:02:09;;;;;;;17.58;6.90;;;14.20;99.90;;;;;;2080805;28;20034;-70
2022/05/15 01:03:14;;;;;;;15.18;6.95;;;14.20;99.90;;;;;;2081520;28;20025;-70
2022/05/15 01:04:15;;;;;;;20.38;6.80;;;14.20;99.90;;;;;;2083187;28;20029;-70
2022/05/15 01:05:16;;;;;;;21.63;7.20;;;14.20;99.90;;;;;;2083575;28;20017;-70
2022/05/15 01:06:17;;;;;;;20.27;6.82;;;14.10;99.90;;;;;;2081633;28;20504;-70
2022/05/15 01:07:18;;;;;;;15.18;5.95;;;14.20;99.90;;;;;;2084728;28;20408;-70
2022/05/15 01:08:19;;;;;;;14.60;6.25;;;14.20;99.90;;;;;;2079933;28;20442;-70
2022/05/15 01:09:20;;;;;;;19.23;6.82;;;14.20;99.90;;;;;;2079397;28;20021;-70
2022/05/15 01:10:20;;;;;;;16.70;5.97;;;14.20;99.90;;;;;;2079693;28;20035;-69
2022/05/15 01:11:22;;;;;;;19.17;7.15;;;14.20;99.90;;;;;;2079013;28;20484;-70
2022/05/15 01:12:23;;;;;;;19.42;6.97;;;14.20;99.90;;;;;;2082336;28;20017;-70
2022/05/15 01:13:27;;;;;;;15.65;5.90;;;14.20;99.90;;;;;;2071233;28;20490;-70
2022/05/15 01:14:28;;;;;;;15.35;6.55;;;14.10;99.90;;;;;;2081414;28;20029;-70
2022/05/15 01:15:29;;;;;;;14.80;6.13;;;14.10;99.90;;;;;;2080933;28;20029;-69
2022/05/15 01:16:29;;;;;;;12.23;5.57;;;14.10;99.90;;;;;;2079471;28;20040;-70
2022/05/15 01:17:30;;;;;;;17.75;6.25;;;14.10;99.90;;;;;;2081234;28;20034;-70
2022/05/15 01:18:33;;;;;;;17.40;7.20;;;14.10;99.90;;;;;;2081972;28;20021;-70
2022/05/15 01:19:37;;;;;;;19.58;6.93;;;14.10;99.90;;;;;;2080321;28;20087;-70
2022/05/15 01:20:40;;;;;;;18.42;6.95;;;14.10;99.90;;;;;;2080239;28;20579;-70
2022/05/15 01:21:53;;;;;;;20.95;6.47;;;14.10;99.90;;;;;;2079694;28;20040;-70
2022/05/15 01:22:54;;;;;;;19.83;7.43;;;14.10;99.90;;;;;;2081131;28;20048;-70
2022/05/15 01:23:55;;;;;;;20.15;7.40;;;14.10;99.90;;;;;;2080101;28;20037;-70
2022/05/15 01:24:56;;;;;;;10.73;5.20;;;14.10;99.90;;;;;;2078544;28;20030;-70
2022/05/15 01:26:00;;;;;;;18.30;6.32;;;14.20;99.90;;;;;;2078498;28;20030;-70
2022/05/15 01:27:03;;;;;;;18.73;6.55;;;14.10;99.90;;;;;;2074459;28;20835;-70
2022/05/15 01:28:09;;;;;;;18.98;6.45;;;14.10;99.90;;;;;;2080570;28;20041;-70
2022/05/15 01:29:10;;;;;;;15.55;6.60;;;14.10;99.90;;;;;;2079815;28;20366;-70
2022/05/15 01:30:11;;;;;;;16.65;6.72;;;14.10;99.90;;;;;;2081730;28;20138;-70
2022/05/15 01:31:11;;;;;;;18.30;6.63;;;14.10;99.90;;;;;;2080969;28;20521;-70
2022/05/15 01:32:13;;;;;;;15.15;5.93;;;14.10;99.90;;;;;;2080748;28;20100;-70
2022/05/15 01:33:14;;;;;;;16.15;5.90;;;14.10;99.90;;;;;;2081983;28;20044;-70
2022/05/15 01:34:15;;;;;;;17.08;6.40;;;14.10;99.90;;;;;;2082110;28;20021;-70
2022/05/15 01:35:15;;;;;;;19.40;7.03;;;14.10;99.90;;;;;;2078890;28;20025;-70
2022/05/15 01:36:19;;;;;;;20.75;7.43;;;14.10;99.90;;;;;;2081270;28;20056;-70
2022/05/15 01:37:19;;;;;;;16.58;6.40;;;14.10;99.90;;;;;;2079224;28;20400;-69
2022/05/15 01:38:20;;;;;;;18.02;6.95;;;14.10;99.90;;;;;;2079174;28;20112;-69
2022/05/15 01:39:21;;;;;;;19.85;7.28;;;14.10;99.90;;;;;;2079271;28;20025;-69
2022/05/15 01:40:21;;;;;;;14.55;6.85;;;14.00;99.90;;;;;;2079401;28;20485;-69
2022/05/15 01:41:24;;;;;;;11.40;5.90;;;14.00;99.90;;;;;;2080180;28;20036;-70
2022/05/15 01:42:25;;;;;;;17.17;6.30;;;14.00;99.90;;;;;;2081361;28;20492;-70
2022/05/15 01:43:25;;;;;;;18.98;6.88;;;14.00;99.90;;;;;;2079565;28;20492;-70
2022/05/15 01:44:26;;;;;;;16.65;6.57;;;14.00;99.90;;;;;;2081337;28;20021;-69
2022/05/15 01:45:27;;;;;;;13.90;6.05;;;14.00;99.90;;;;;;2074029;28;20013;-70
2022/05/15 01:46:29;;;;;;;16.50;6.70;;;14.00;99.90;;;;;;2077891;28;20059;-70
2022/05/15 01:47:29;;;;;;;14.73;6.10;;;14.00;99.90;;;;;;2080470;28;20024;-70
2022/05/15 01:48:30;;;;;;;17.77;7.28;;;14.00;99.90;;;;;;2078224;28;20032;-70
2022/05/15 01:49:31;;;;;;;18.20;6.25;;;14.00;99.90;;;;;;2081292;28;20068;-70
2022/05/15 01:50:31;;;;;;;14.55;5.93;;;14.00;99.90;;;;;;2080381;28;20014;-70
2022/05/15 01:51:35;;;;;;;22.85;7.45;;;14.00;99.90;;;;;;2079503;28;20017;-70
2022/05/15 01:52:36;;;;;;;24.60;7.90;;;14.00;99.90;;;;;;2079169;28;20060;-70
2022/05/15 01:53:37;;;;;;;15.07;6.43;;;13.90;99.90;;;;;;2081156;28;20024;-70
2022/05/15 01:54:38;;;;;;;14.52;6.65;;;14.00;99.90;;;;;;2082230;28;20018;-70
2022/05/15 01:55:39;;;;;;;16.85;7.43;;;13.90;99.90;;;;;;2078631;28;20020;-70
2022/05/15 01:56:41;;;;;;;18.90;6.88;;;13.90;99.90;;;;;;2078677;28;20030;-70
2022/05/15 01:57:41;;;;;;;18.05;6.85;;;14.00;99.90;;;;;;2082021;28;20009;-70
2022/05/15 01:58:42;;;;;;;21.08;7.68;;;14.00;99.90;;;;;;2084229;28;20060;-69
2022/05/15 01:59:43;;;;;;;20.85;7.40;;;13.90;99.90;;;;;;2079645;28;20025;-70
2022/05/15 02:00:43;;;;;;;18.30;6.85;;;13.90;99.90;;;;;;2079325;28;20147;-70
2022/05/15 02:01:44;;;;;;;18.20;8.13;;;13.90;99.90;;;;;;2078835;28;20057;-70
2022/05/15 02:02:44;;;;;;;19.00;7.95;;;14.00;99.90;;;;;;2078593;28;20028;-70
2022/05/15 02:03:45;;;;;;;20.23;7.03;;;13.90;99.90;;;;;;2079682;28;20083;-70
2022/05/15 02:04:49;;;;;;;21.85;7.28;;;13.90;99.90;;;;;;2080609;28;20017;-70
2022/05/15 02:05:50;;;;;;;16.38;6.75;;;13.90;99.90;;;;;;2081615;28;20377;-69
2022/05/15 02:06:51;;;;;;;17.88;7.32;;;13.90;99.90;;;;;;2081569;28;20056;-70
2022/05/15 02:07:51;;;;;;;18.83;7.57;;;13.90;99.90;;;;;;2079559;28;20029;-69
2022/05/15 02:08:52;;;;;;;18.55;6.50;;;13.90;99.90;;;;;;2078925;28;20128;-69
2022/05/15 02:09:52;;;;;;;17.77;6.50;;;13.90;99.90;;;;;;2084236;28;20028;-69
2022/05/15 02:10:53;;;;;;;16.63;6.53;;;13.90;99.90;;;;;;2080826;28;20297;-69
2022/05/15 02:11:53;;;;;;;13.10;6.25;;;13.90;99.90;;;;;;2081727;28;20063;-70
2022/05/15 02:12:54;;;;;;;12.85;5.70;;;13.90;99.90;;;;;;2078550;28;20017;-70
2022/05/15 02:13:55;;;;;;;11.60;5.63;;;13.80;99.90;;;;;;2080393;28;20053;-70
2022/05/15 02:14:55;;;;;;;14.30;6.68;;;13.80;99.90;;;;;;2084935;28;20028;-69
2022/05/15 02:15:56;;;;;;;17.95;7.28;;;13.80;99.90;;;;;;2078984;28;20028;-70
2022/05/15 02:16:56;;;;;;;14.38;6.30;;;13.90;99.90;;;;;;2082074;28;20017;-71
2022/05/15 02:17:57;;;;;;;16.92;6.38;;;13.80;99.90;;;;;;2078476;28;20030;-70
2022/05/15 02:18:58;;;;;;;18.08;6.43;;;13.80;99.90;;;;;;2079003;28;20110;-69
2022/05/15 02:19:59;;;;;;;17.05;7.55;;;13.80;99.90;;;;;;2081035;28;20029;-70
2022/05/15 02:21:00;;;;;;;14.35;6.65;;;13.80;99.90;;;;;;2079232;28;20026;-70
2022/05/15 02:22:00;;;;;;;14.02;6.07;;;13.80;99.90;;;;;;2078974;28;20475;-70
2022/05/15 02:23:01;;;;;;;19.05;5.95;;;13.80;99.90;;;;;;2077008;28;20041;-70
2022/05/15 02:24:02;;;;;;;16.38;6.70;;;13.80;99.90;;;;;;2079644;28;20021;-69
2022/05/15 02:25:03;;;;;;;13.00;6.00;;;13.70;99.90;;;;;;2080525;28;20040;-69
2022/05/15 02:26:04;;;;;;;17.35;6.65;;;13.70;99.90;;;;;;2081309;28;20472;-69
2022/05/15 02:27:05;;;;;;;14.93;7.32;;;13.70;99.90;;;;;;2080944;28;20075;-70
2022/05/15 02:28:09;;;;;;;18.63;6.35;;;13.70;99.90;;;;;;2080167;28;20056;-70
2022/05/15 02:29:10;;;;;;;20.20;6.78;;;13.70;99.90;;;;;;2079720;28;20057;-70
2022/05/15 02:30:15;;;;;;;15.38;5.70;;;13.70;99.90;;;;;;2078265;28;20025;-70
2022/05/15 02:31:16;;;;;;;15.32;6.63;;;13.70;99.90;;;;;;2080539;28;20021;-70
2022/05/15 02:32:17;;;;;;;14.43;6.43;;;13.70;99.90;;;;;;2079021;28;20022;-70
2022/05/15 02:33:18;;;;;;;14.75;5.95;;;13.60;99.90;;;;;;2080692;28;20017;-70
2022/05/15 02:34:21;;;;;;;14.50;6.25;;;13.60;99.90;;;;;;2079346;28;20531;-70
2022/05/15 02:35:21;;;;;;;14.98;5.78;;;13.60;99.90;;;;;;2083860;28;20028;-70
2022/05/15 02:36:22;;;;;;;15.52;6.88;;;13.60;99.90;;;;;;2083714;28;20084;-70
2022/05/15 02:37:22;;;;;;;16.30;6.80;;;13.60;99.90;;;;;;2083207;28;20049;-70
2022/05/15 02:38:24;;;;;;;14.52;6.28;;;13.60;99.90;;;;;;2082487;28;20040;-70
2022/05/15 02:39:24;;;;;;;17.45;6.72;;;13.60;99.90;;;;;;2084372;28;20018;-69
2022/05/15 02:40:25;;;;;;;17.20;6.85;;;13.60;99.90;;;;;;2082746;28;20025;-69
2022/05/15 02:41:26;;;;;;;18.70;7.03;;;13.50;99.90;;;;;;2085719;28;20055;-69
2022/05/15 02:42:27;;;;;;;22.20;7.10;;;13.50;99.90;;;;;;2082677;28;20082;-69
2022/05/15 02:43:27;;;;;;;14.63;6.60;;;13.50;99.90;;;;;;2084606;28;20032;-69
2022/05/15 02:44:29;;;;;;;12.63;6.80;;;13.50;99.90;;;;;;2083043;28;20057;-69
2022/05/15 02:45:30;;;;;;;15.02;6.43;;;13.50;99.90;;;;;;2079895;28;20046;-69
2022/05/15 02:46:30;;;;;;;14.18;6.50;;;13.50;99.90;;;;;;2083732;28;20121;-69
2022/05/15 02:47:31;;;;;;;14.65;6.80;;;13.40;99.90;;;;;;2080090;28;20028;-69
2022/05/15 02:51:10;;;;;;;16.48;6.47;;;13.40;99.90;;;;;;2080899;28;20549;-69
2022/05/15 02:52:10;;;;;;;18.35;7.32;;;13.30;99.90;;;;;;2080981;28;20445;-69
2022/05/15 02:53:11;;;;;;;14.35;6.28;;;13.30;99.90;;;;;;2081522;28;20025;-70
2022/05/15 02:54:11;;;;;;;13.38;6.68;;;13.30;99.90;;;;;;2080763;28;20021;-70
2022/05/15 02:55:12;;;;;;;21.17;7.30;;;13.30;99.90;;;;;;2079183;28;20091;-70
2022/05/15 02:56:17;;;;;;;15.38;6.55;;;13.30;99.90;;;;;;2082891;28;20017;-70
2022/05/15 02:57:17;;;;;;;16.52;6.28;;;13.20;99.90;;;;;;2081602;28;20076;-69
2022/05/15 02:58:18;;;;;;;12.07;6.18;;;13.20;99.90;;;;;;2080701;28;20022;-69
2022/05/15 02:59:18;;;;;;;14.50;6.78;;;13.20;99.90;;;;;;2085391;28;20425;-69
2022/05/15 03:00:23;;;;;;;13.55;6.47;;;13.20;99.90;;;;;;2081608;28;20421;-69
2022/05/15 03:01:24;;;;;;;15.85;6.30;;;13.20;99.90;;;;;;2081780;28;20096;-69
2022/05/15 03:02:25;;;;;;;12.30;5.78;;;13.10;99.90;;;;;;2080642;28;20022;-69
2022/05/15 03:03:26;;;;;;;19.40;6.90;;;13.10;99.90;;;;;;2079938;28;20037;-69
2022/05/15 03:04:27;;;;;;;15.80;7.60;;;13.10;99.90;;;;;;2082804;28;20025;-70
2022/05/15 03:05:28;;;;;;;13.88;5.97;;;13.10;99.90;;;;;;2080173;28;20071;-69
2022/05/15 03:06:30;;;;;;;14.70;7.00;;;13.10;99.90;;;;;;2081410;28;20025;-69
2022/05/15 03:07:30;;;;;;;13.25;6.72;;;13.10;99.90;;;;;;2082587;28;20026;-69
2022/05/15 03:08:33;;;;;;;14.98;6.72;;;13.00;99.90;;;;;;2083124;28;20032;-69
2022/05/15 03:09:34;;;;;;;13.38;6.22;;;13.00;99.90;;;;;;2081717;28;20095;-69
2022/05/15 03:10:35;;;;;;;11.20;6.43;;;13.00;99.90;;;;;;2085335;28;20033;-70
2022/05/15 03:11:35;;;;;;;14.43;6.53;;;13.00;99.90;;;;;;2080204;28;20025;-70
2022/05/15 03:12:36;;;;;;;15.05;6.40;;;13.00;99.90;;;;;;2080511;28;20020;-69
2022/05/15 03:13:36;;;;;;;14.10;6.93;;;12.90;99.90;;;;;;2081049;28;20028;-69
2022/05/15 03:14:37;;;;;;;15.80;6.90;;;12.90;99.90;;;;;;2080646;28;20024;-69
2022/05/15 03:15:38;;;;;;;14.02;7.38;;;12.90;99.90;;;;;;2081682;28;20017;-70
2022/05/15 03:16:39;;;;;;;13.00;6.93;;;12.90;99.90;;;;;;2080226;28;20017;-70
2022/05/15 03:17:41;;;;;;;14.13;6.18;;;12.90;99.90;;;;;;2081316;28;20056;-69
2022/05/15 03:18:51;;;;;;;14.10;7.25;;;12.90;99.90;;;;;;2082349;28;20021;-69
2022/05/15 03:19:51;;;;;;;16.20;6.55;;;12.90;99.90;;;;;;2084693;28;20025;-69
2022/05/15 03:20:52;;;;;;;16.63;7.25;;;12.80;99.90;;;;;;2081741;28;20052;-69
2022/05/15 03:21:52;;;;;;;11.98;6.70;;;12.80;99.90;;;;;;2083348;28;20563;-69
2022/05/15 03:22:55;;;;;;;14.98;6.78;;;12.80;99.90;;;;;;2082712;28;20357;-69
2022/05/15 03:23:59;;;;;;;14.43;6.85;;;12.80;99.90;;;;;;2080640;28;20025;-69
2022/05/15 03:25:00;;;;;;;14.88;7.30;;;12.70;99.90;;;;;;2082554;28;20040;-69
2022/05/15 03:26:00;;;;;;;13.35;7.00;;;12.70;99.90;;;;;;2079746;28;20040;-69
2022/05/15 03:27:01;;;;;;;13.35;6.70;;;12.70;99.90;;;;;;2080790;28;20588;-69
2022/05/15 03:28:01;;;;;;;15.57;8.15;;;12.70;99.90;;;;;;2079716;28;20438;-69
2022/05/15 03:29:03;;;;;;;15.32;7.05;;;12.60;99.90;;;;;;2081614;28;20091;-69
2022/05/15 03:30:05;;;;;;;15.00;6.57;;;12.60;99.90;;;;;;2086910;28;20063;-69
2022/05/15 03:31:06;;;;;;;14.50;6.85;;;12.60;99.90;;;;;;2080244;28;20432;-69
2022/05/15 03:32:07;;;;;;;15.40;6.65;;;12.60;99.90;;;;;;2079842;28;20120;-69
2022/05/15 03:33:08;;;;;;;11.13;6.22;;;12.60;99.90;;;;;;2082409;28;20021;-69
2022/05/15 03:34:12;;;;;;;11.07;6.25;;;12.60;99.90;;;;;;2081963;28;20105;-69
2022/05/15 03:35:14;;;;;;;13.68;7.30;;;12.60;99.90;;;;;;2082739;28;20144;-69
2022/05/15 03:36:15;;;;;;;10.52;6.20;;;12.50;99.90;;;;;;2081299;28;20401;-69
2022/05/15 03:37:16;;;;;;;12.70;7.18;;;12.50;99.90;;;;;;2080391;28;20025;-69
2022/05/15 03:38:17;;;;;;;12.60;6.85;;;12.50;99.90;;;;;;2083773;28;20017;-69
2022/05/15 03:39:19;;;;;;;16.85;7.85;;;12.50;99.90;;;;;;2081037;28;20122;-70
2022/05/15 03:40:20;;;;;;;12.20;7.28;;;12.50;99.90;;;;;;2080039;28;20021;-69
2022/05/15 03:41:20;;;;;;;15.07;7.20;;;12.40;99.90;;;;;;2082478;28;20052;-69
2022/05/15 03:42:24;;;;;;;16.40;8.05;;;12.50;99.90;;;;;;2080012;28;20048;-69
2022/05/15 03:43:25;;;;;;;17.13;7.85;;;12.50;99.90;;;;;;2082955;28;20010;-69
2022/05/15 03:44:27;;;;;;;14.45;7.30;;;12.40;99.90;;;;;;2080707;28;20017;-70
2022/05/15 03:45:27;;;;;;;12.82;6.68;;;12.40;99.90;;;;;;2078918;28;20033;-69
2022/05/15 03:46:28;;;;;;;12.98;6.75;;;12.40;99.90;;;;;;2079985;28;20109;-69
2022/05/15 03:47:29;;;;;;;16.13;7.82;;;12.40;99.90;;;;;;2079636;28;20048;-69
2022/05/15 03:48:29;;;;;;;13.85;6.90;;;12.40;99.90;;;;;;2079604;28;20018;-69
2022/05/15 03:49:30;;;;;;;11.77;6.20;;;12.40;99.90;;;;;;2081640;28;20021;-69
2022/05/15 03:50:31;;;;;;;10.73;6.75;;;12.30;99.90;;;;;;2081840;28;20033;-69
2022/05/15 03:51:32;;;;;;;13.13;7.72;;;12.40;99.90;;;;;;2080211;28;20026;-70
2022/05/15 03:52:32;;;;;;;11.13;6.30;;;12.30;99.90;;;;;;2081336;28;20078;-70
2022/05/15 03:53:33;;;;;;;14.73;6.90;;;12.30;99.90;;;;;;2081265;28;20024;-70
2022/05/15 03:54:34;;;;;;;14.43;7.00;;;12.30;99.90;;;;;;2082020;28;20374;-70
2022/05/15 03:55:35;;;;;;;15.57;7.55;;;12.30;99.90;;;;;;2082092;28;20171;-70
2022/05/15 03:56:51;;;;;;;13.98;7.00;;;12.30;99.90;;;;;;2080520;28;20106;-70
2022/05/15 03:57:55;;;;;;;14.30;6.82;;;12.30;99.90;;;;;;2081474;28;20465;-70
2022/05/15 03:58:56;;;;;;;12.80;7.22;;;12.20;99.90;;;;;;2080352;28;20393;-70
2022/05/15 03:59:57;;;;;;;14.07;7.47;;;12.20;99.90;;;;;;2082959;28;20093;-70
2022/05/15 04:00:57;;;;;;;13.63;6.20;;;12.20;99.90;;;;;;2082071;28;20045;-70
2022/05/15 04:02:03;;;;;;;15.77;7.47;;;12.20;99.90;;;;;;2080033;28;20531;-70
2022/05/15 04:03:03;;;;;;;14.50;6.60;;;12.20;99.90;;;;;;2079974;28;20021;-70
2022/05/15 04:04:04;;;;;;;15.57;7.07;;;12.20;99.90;;;;;;2080288;28;20075;-70
2022/05/15 04:05:10;;;;;;;11.15;6.43;;;12.20;99.90;;;;;;2080259;28;20053;-70
2022/05/15 04:06:10;;;;;;;14.15;7.95;;;12.20;99.90;;;;;;2081083;28;20520;-70
2022/05/15 04:07:11;;;;;;;14.55;7.22;;;12.20;99.90;;;;;;2083744;28;20432;-70
2022/05/15 04:08:12;;;;;;;14.27;7.25;;;12.20;99.90;;;;;;2081185;28;20473;-70
2022/05/15 04:09:13;;;;;;;17.55;7.55;;;12.20;99.90;;;;;;2083811;28;20340;-70
2022/05/15 04:10:16;;;;;;;15.63;7.25;;;12.20;99.90;;;;;;2080028;28;20037;-70
2022/05/15 04:11:17;;;;;;;13.88;7.32;;;12.20;99.90;;;;;;2080073;28;20095;-70
2022/05/15 04:12:18;;;;;;;17.27;7.25;;;12.20;99.90;;;;;;2081486;28;20105;-70
2022/05/15 04:13:19;;;;;;;19.58;7.78;;;12.20;99.90;;;;;;2082922;28;20021;-70
2022/05/15 04:14:19;;;;;;;11.70;6.82;;;12.20;99.90;;;;;;2080113;28;20071;-70
2022/05/15 04:15:20;;;;;;;16.45;7.43;;;12.20;99.90;;;;;;2081896;28;20060;-70
2022/05/15 04:16:21;;;;;;;15.55;6.80;;;12.20;99.90;;;;;;2078493;28;20632;-70
2022/05/15 04:17:21;;;;;;;18.75;8.77;;;12.20;99.90;;;;;;2082756;28;20068;-70
2022/05/15 04:18:22;;;;;;;17.40;8.40;;;12.20;99.90;;;;;;2082244;28;20021;-70
2022/05/15 04:19:23;;;;;;;16.45;8.32;;;12.20;99.90;;;;;;2082844;28;20021;-70
2022/05/15 04:20:26;;;;;;;15.85;8.27;;;12.20;99.90;;;;;;2081812;28;20195;-70
2022/05/15 04:21:26;;;;;;;12.23;7.50;;;12.20;99.90;;;;;;2082671;28;20116;-70
2022/05/15 04:22:27;;;;;;;14.60;7.90;;;12.20;99.90;;;;;;2083676;28;20036;-70
2022/05/15 04:23:27;;;;;;;13.93;7.68;;;12.20;99.90;;;;;;2083578;28;20064;-70
2022/05/15 04:24:28;;;;;;;18.50;8.20;;;12.20;99.90;;;;;;2081279;28;20481;-70
2022/05/15 04:25:29;;;;;;;13.93;7.18;;;12.20;99.90;;;;;;2083264;28;20591;-70
2022/05/15 04:26:30;;;;;;;16.13;8.15;;;12.20;99.90;;;;;;2081150;28;20048;-70
2022/05/15 04:27:30;;;;;;;14.50;7.85;;;12.20;99.90;;;;;;2079539;28;20088;-70
2022/05/15 04:28:31;;;;;;;13.55;7.45;;;12.20;99.90;;;;;;2079307;28;20079;-70
2022/05/15 04:29:31;;;;;;;16.15;8.38;;;12.20;99.90;;;;;;2080748;28;20393;-70
2022/05/15 04:30:32;;;;;;;13.32;7.68;;;12.20;99.90;;;;;;2081450;28;20025;-70
2022/05/15 04:31:34;;;;;;;13.10;7.70;;;12.30;99.90;;;;;;2081613;28;20481;-70
2022/05/15 04:32:34;;;;;;;13.27;7.32;;;12.30;99.90;;;;;;2082890;28;20040;-70
2022/05/15 04:33:35;;;;;;;14.77;8.20;;;12.30;99.90;;;;;;2080450;28;20052;-70
2022/05/15 04:34:36;;;;;;;14.52;8.00;;;12.30;99.90;;;;;;2080176;28;20033;-70
2022/05/15 04:35:36;;;;;;;17.27;8.00;;;12.40;99.90;;;;;;2079351;28;20022;-70
2022/05/15 04:36:37;;;;;;;19.75;8.10;;;12.40;99.90;;;;;;2082917;28;20047;-70
2022/05/15 04:37:41;;;;;;;14.05;7.57;;;12.50;99.90;;;;;;2079840;28;20021;-70
2022/05/15 04:38:42;;;;;;;14.48;7.50;;;12.50;99.90;;;;;;2079960;28;20512;-70
2022/05/15 04:39:42;;;;;;;15.35;8.50;;;12.50;99.90;;;;;;2076777;28;20405;-70
2022/05/15 04:40:43;;;;;;;19.90;8.50;;;12.60;99.90;;;;;;2077682;28;20494;-70
2022/05/15 04:41:44;;;;;;;15.73;7.78;;;12.60;99.90;;;;;;2082190;28;20103;-70
2022/05/15 04:42:45;;;;;;;14.73;7.85;;;12.60;99.90;;;;;;2081272;28;20021;-70
2022/05/15 04:43:46;;;;;;;15.88;7.40;;;12.70;99.90;;;;;;2081876;28;20056;-70
2022/05/15 04:44:48;;;;;;;12.77;7.90;;;12.70;99.90;;;;;;2083219;28;20028;-70
2022/05/15 04:45:48;;;;;;;15.98;8.20;;;12.70;99.90;;;;;;2079628;28;20041;-70
2022/05/15 04:46:49;;;;;;;12.32;8.05;;;12.80;99.90;;;;;;2079803;28;20543;-70
2022/05/15 04:47:49;;;;;;;17.25;8.63;;;12.80;99.90;;;;;;2080171;28;20406;-70
2022/05/15 04:48:50;;;;;;;17.02;8.23;;;12.90;99.90;;;;;;2080093;28;20056;-70
2022/05/15 04:49:51;;;;;;;13.90;7.70;;;12.90;99.90;;;;;;2082713;28;20132;-70
2022/05/15 04:50:52;;;;;;;13.52;8.27;;;12.90;99.90;;;;;;2085652;28;20021;-70
2022/05/15 04:51:52;;;;;;;17.23;8.40;;;13.00;99.90;;;;;;2082357;28;20029;-70
2022/05/15 04:52:53;;;;;;;13.77;6.35;;;13.10;99.90;;;;;;2082796;28;20504;-70
2022/05/15 04:53:53;;;;;;;13.95;7.63;;;13.10;99.90;;;;;;2081632;28;20082;-70
2022/05/15 04:54:54;;;;;;;18.20;8.75;;;13.20;99.90;;;;;;2079819;28;20026;-70
2022/05/15 04:55:54;;;;;;;16.45;8.68;;;13.20;99.90;;;;;;2079127;28;20044;-70
2022/05/15 04:56:55;;;;;;;18.10;7.85;;;13.30;99.90;;;;;;2079574;28;20026;-70
2022/05/15 04:57:56;;;;;;;17.60;7.97;;;13.40;99.90;;;;;;2083911;28;20029;-70
2022/05/15 04:58:56;;;;;;;11.93;7.03;;;13.40;99.90;;;;;;2082525;28;20029;-70
2022/05/15 04:59:57;;;;;;;16.27;8.52;;;13.50;99.90;;;;;;2079900;28;20199;-70
2022/05/15 05:00:58;;;;;;;17.35;8.35;;;13.60;99.90;;;;;;2080797;28;20033;-70
2022/05/15 05:01:58;;;;;;;15.02;7.53;;;13.60;99.90;;;;;;2080411;28;20026;-70
2022/05/15 05:02:59;;;;;;;15.00;7.57;;;13.70;99.90;;;;;;2081709;28;20514;-70
2022/05/15 05:03:59;;;;;;;17.45;7.78;;;13.80;99.90;;;;;;2081012;28;20639;-70
2022/05/15 05:05:00;;;;;;;11.70;7.70;;;13.90;99.90;;;;;;2079609;28;20029;-70
2022/05/15 05:06:01;;;;;;;19.02;8.05;;;14.00;99.90;;;;;;2079670;28;20037;-70
2022/05/15 05:07:02;;;;;;;11.45;7.18;;;14.10;99.90;;;;;;2080858;28;20505;-70
2022/05/15 05:08:05;;;;;;;16.50;8.02;;;14.20;99.90;;;;;;2079274;28;20025;-70
2022/05/15 05:09:05;;;;;;;12.95;7.97;;;14.30;99.90;;;;;;2082502;28;20538;-70
2022/05/15 05:10:08;;;;;;;13.85;7.68;;;14.40;99.90;;;;;;2079546;28;20413;-70
2022/05/15 05:11:08;;;;;;;14.07;7.40;;;14.40;99.90;;;;;;2080715;28;20017;-70
2022/05/15 05:12:09;;;;;;;15.20;8.27;;;14.50;99.90;;;;;;2078107;28;20037;-70
2022/05/15 05:13:10;;;;;;;15.00;8.30;;;14.60;99.90;;;;;;2080334;28;20053;-70
2022/05/15 05:14:11;;;;;;;11.77;7.28;;;14.70;99.90;;;;;;2083062;28;20543;-70
2022/05/15 05:15:12;;;;;;;18.50;8.10;;;14.80;99.90;;;;;;2080683;28;21201;-70
2022/05/15 05:16:13;;;;;;;14.77;7.93;;;15.00;99.90;;;;;;2081412;28;20104;-70
2022/05/15 05:17:14;;;;;;;13.85;7.47;;;15.10;99.90;;;;;;2082732;28;20041;-70
2022/05/15 05:18:17;;;;;;;18.02;8.05;;;15.20;99.90;;;;;;2080470;28;20431;-70